createdAt,value
2023-04-30T00:02:22.504Z,9.42
2023-04-30T00:04:50.953Z,9.40
2023-04-30T00:07:17.926Z,9.40
2023-04-30T00:09:44.881Z,9.42
2023-04-30T00:12:11.784Z,9.42
2023-04-30T00:14:38.676Z,9.44
2023-04-30T00:17:05.856Z,9.45
2023-04-30T00:19:32.855Z,9.47
2023-04-30T00:22:05.460Z,9.48
2023-04-30T00:24:32.427Z,9.48
2023-04-30T00:26:59.557Z,9.46
2023-04-30T00:29:26.612Z,9.42
2023-04-30T00:31:53.569Z,9.39
2023-04-30T00:34:20.558Z,9.35
2023-04-30T00:36:47.504Z,9.33
2023-04-30T00:39:16.648Z,9.30
2023-04-30T00:41:43.668Z,9.26
2023-04-30T00:44:10.789Z,9.24
2023-04-30T00:46:37.776Z,9.22
2023-04-30T00:49:05.256Z,9.21
2023-04-30T00:51:33.202Z,9.23
2023-04-30T00:54:02.786Z,9.19
2023-04-30T00:56:31.954Z,9.16
2023-04-30T00:58:59.404Z,9.13
2023-04-30T01:01:28.914Z,9.06
2023-04-30T01:03:55.956Z,9.02
2023-04-30T01:06:23.552Z,8.97
2023-04-30T01:08:52.045Z,8.93
2023-04-30T01:11:28.812Z,8.90
2023-04-30T01:14:04.580Z,8.83
2023-04-30T01:16:37.487Z,8.78
2023-04-30T01:19:09.510Z,8.74
2023-04-30T01:21:41.503Z,8.73
2023-04-30T01:24:37.091Z,8.68
2023-04-30T01:27:13.961Z,8.63
2023-04-30T01:29:45.343Z,8.58
2023-04-30T01:32:12.528Z,8.58
2023-04-30T01:34:40.448Z,8.57
2023-04-30T01:37:16.247Z,8.56
2023-04-30T01:39:57.546Z,8.56
2023-04-30T01:42:30.956Z,8.57
2023-04-30T01:45:22.619Z,8.58
2023-04-30T01:47:56.406Z,8.55
2023-04-30T01:50:33.735Z,8.52
2023-04-30T01:53:02.916Z,8.47
2023-04-30T01:55:36.799Z,8.39
2023-04-30T01:58:07.363Z,8.37
2023-04-30T02:00:35.842Z,8.36
2023-04-30T02:03:03.155Z,8.32
2023-04-30T02:05:30.764Z,8.29
2023-04-30T02:07:57.792Z,8.29
2023-04-30T02:10:26.457Z,8.28
2023-04-30T02:12:53.760Z,8.25
2023-04-30T02:15:20.971Z,8.21
2023-04-30T02:17:49.427Z,8.14
2023-04-30T02:20:16.504Z,8.11
2023-04-30T02:22:43.552Z,8.07
2023-04-30T02:25:12.486Z,8.04
2023-04-30T02:27:40.318Z,8.00
2023-04-30T02:30:08.461Z,7.96
2023-04-30T02:32:35.537Z,7.92
2023-04-30T02:35:04.484Z,7.91
2023-04-30T02:37:31.412Z,7.88
2023-04-30T02:39:58.652Z,7.85
2023-04-30T02:42:25.920Z,7.78
2023-04-30T02:44:53.094Z,7.73
2023-04-30T02:47:20.054Z,7.69
2023-04-30T02:49:47.074Z,7.68
2023-04-30T02:52:15.448Z,7.65
2023-04-30T02:54:43.123Z,7.62
2023-04-30T02:57:10.049Z,7.62
2023-04-30T02:59:37.617Z,7.57
2023-04-30T03:02:05.751Z,7.56
2023-04-30T03:04:32.688Z,7.55
2023-04-30T03:07:00.539Z,7.55
2023-04-30T03:09:29.904Z,7.52
2023-04-30T03:11:56.816Z,7.49
2023-04-30T03:14:23.860Z,7.49
2023-04-30T03:16:50.869Z,7.47
2023-04-30T03:19:22.066Z,7.44
2023-04-30T03:21:49.077Z,7.39
2023-04-30T03:24:15.963Z,7.41
2023-04-30T03:26:44.259Z,7.44
2023-04-30T03:29:11.357Z,7.46
2023-04-30T03:31:38.335Z,7.47
2023-04-30T03:34:05.322Z,7.49
2023-04-30T03:36:33.422Z,7.52
2023-04-30T03:39:00.558Z,7.51
2023-04-30T03:41:27.611Z,7.56
2023-04-30T03:43:56.009Z,7.61
2023-04-30T03:46:23.210Z,7.63
2023-04-30T03:48:50.194Z,7.55
2023-04-30T03:51:22.184Z,7.47
2023-04-30T03:53:49.385Z,7.49
2023-04-30T03:56:16.822Z,7.57
2023-04-30T03:58:43.777Z,7.64
2023-04-30T04:01:12.121Z,7.69
2023-04-30T04:03:39.113Z,7.71
2023-04-30T04:06:06.390Z,7.69
2023-04-30T04:08:34.162Z,7.67
2023-04-30T04:11:01.167Z,7.69
2023-04-30T04:13:30.959Z,7.71
2023-04-30T04:15:58.488Z,7.76
2023-04-30T04:18:27.110Z,7.81
2023-04-30T04:20:54.837Z,7.83
2023-04-30T04:23:22.119Z,7.87
2023-04-30T04:25:52.474Z,7.92
2023-04-30T04:28:20.400Z,7.95
2023-04-30T04:30:49.767Z,7.99
2023-04-30T04:33:17.281Z,8.05
2023-04-30T04:35:46.106Z,8.11
2023-04-30T04:38:13.161Z,8.18
2023-04-30T04:40:40.327Z,8.27
2023-04-30T04:43:07.518Z,8.37
2023-04-30T04:45:34.484Z,8.46
2023-04-30T04:48:01.466Z,8.51
2023-04-30T04:50:28.801Z,8.47
2023-04-30T04:53:00.188Z,8.52
2023-04-30T04:55:27.674Z,8.55
2023-04-30T04:57:54.654Z,8.63
2023-04-30T05:00:23.195Z,8.77
2023-04-30T05:02:50.402Z,8.82
2023-04-30T05:05:17.562Z,8.92
2023-04-30T05:07:44.521Z,8.95
2023-04-30T05:10:12.842Z,9.15
2023-04-30T05:12:39.855Z,9.38
2023-04-30T05:15:07.736Z,9.80
2023-04-30T05:17:37.489Z,10.15
2023-04-30T05:20:07.432Z,10.54
2023-04-30T05:22:34.628Z,10.97
2023-04-30T05:25:01.544Z,11.32
2023-04-30T05:27:29.998Z,11.60
2023-04-30T05:29:57.061Z,11.72
2023-04-30T05:32:24.201Z,11.77
2023-04-30T05:34:51.398Z,11.73
2023-04-30T05:37:20.105Z,11.78
2023-04-30T05:39:47.633Z,11.83
2023-04-30T05:42:14.635Z,11.88
2023-04-30T05:44:42.980Z,11.94
2023-04-30T05:47:09.939Z,12.05
2023-04-30T05:49:36.849Z,12.13
2023-04-30T05:52:04.239Z,12.24
2023-04-30T05:54:31.521Z,12.29
2023-04-30T05:56:58.726Z,12.36
2023-04-30T05:59:26.078Z,12.52
2023-04-30T06:01:54.433Z,12.68
2023-04-30T06:04:21.407Z,12.83
2023-04-30T06:06:48.570Z,12.95
2023-04-30T06:09:16.092Z,13.04
2023-04-30T06:11:45.416Z,13.01
2023-04-30T06:14:12.413Z,12.99
2023-04-30T06:16:39.439Z,13.02
2023-04-30T06:19:07.989Z,13.15
2023-04-30T06:21:35.247Z,13.24
2023-04-30T06:24:02.165Z,13.34
2023-04-30T06:26:29.151Z,13.46
2023-04-30T06:28:56.308Z,13.65
2023-04-30T06:31:23.308Z,13.82
2023-04-30T06:33:50.612Z,14.02
2023-04-30T06:36:19.645Z,14.25
2023-04-30T06:38:47.080Z,14.46
2023-04-30T06:41:14.636Z,14.60
2023-04-30T06:43:41.552Z,14.74
2023-04-30T06:46:09.069Z,15.00
2023-04-30T06:48:35.997Z,15.35
2023-04-30T06:51:02.914Z,15.53
2023-04-30T06:53:31.260Z,15.72
2023-04-30T06:55:58.214Z,15.83
2023-04-30T06:58:25.718Z,16.05
2023-04-30T07:00:52.831Z,16.28
2023-04-30T07:03:20.109Z,16.49
2023-04-30T07:05:47.161Z,16.58
2023-04-30T07:08:15.189Z,16.76
2023-04-30T07:10:43.527Z,17.11
2023-04-30T07:13:10.570Z,17.29
2023-04-30T07:15:38.113Z,17.45
2023-04-30T07:18:05.092Z,17.57
2023-04-30T07:20:32.421Z,17.54
2023-04-30T07:22:59.397Z,17.59
2023-04-30T07:25:26.312Z,17.74
2023-04-30T07:27:55.394Z,17.86
2023-04-30T07:30:24.902Z,17.93
2023-04-30T07:32:52.310Z,18.19
2023-04-30T07:35:19.349Z,18.50
2023-04-30T07:37:46.303Z,18.86
2023-04-30T07:40:21.922Z,19.35
2023-04-30T07:42:57.600Z,19.95
2023-04-30T07:45:24.788Z,20.36
2023-04-30T07:47:51.915Z,20.50
2023-04-30T07:50:18.932Z,20.40
2023-04-30T07:52:46.072Z,20.26
2023-04-30T07:55:13.429Z,20.38
2023-04-30T07:57:40.447Z,20.44
2023-04-30T08:00:09.658Z,20.75
2023-04-30T08:02:45.892Z,20.78
2023-04-30T08:05:13.747Z,21.15
2023-04-30T08:07:41.466Z,21.58
2023-04-30T08:10:09.208Z,21.70
2023-04-30T08:12:37.080Z,21.61
2023-04-30T08:15:05.390Z,21.91
2023-04-30T08:17:33.769Z,22.02
2023-04-30T08:20:01.048Z,21.78
2023-04-30T08:22:28.003Z,21.73
2023-04-30T08:24:55.803Z,21.84
2023-04-30T08:27:23.351Z,22.30
2023-04-30T08:29:50.406Z,22.73
2023-04-30T08:32:19.640Z,23.24
2023-04-30T08:34:48.171Z,23.60
2023-04-30T08:37:15.883Z,23.74
2023-04-30T08:39:42.865Z,23.89
2023-04-30T08:42:14.033Z,23.94
2023-04-30T08:44:44.078Z,24.12
2023-04-30T08:47:14.445Z,24.39
2023-04-30T08:49:41.787Z,24.65
2023-04-30T08:52:11.200Z,24.93
2023-04-30T08:54:38.269Z,25.26
2023-04-30T08:57:08.590Z,25.55
2023-04-30T08:59:35.810Z,25.81
2023-04-30T09:02:02.966Z,26.11
2023-04-30T09:04:30.921Z,26.28
2023-04-30T09:07:02.325Z,26.51
2023-04-30T09:09:38.410Z,26.78
2023-04-30T09:12:18.410Z,26.98
2023-04-30T09:14:59.340Z,27.06
2023-04-30T09:17:26.650Z,27.13
2023-04-30T09:19:54.111Z,27.28
2023-04-30T09:22:24.623Z,27.28
2023-04-30T09:24:53.536Z,27.31
2023-04-30T09:27:22.178Z,27.52
2023-04-30T09:29:49.196Z,27.84
2023-04-30T09:32:16.202Z,28.12
2023-04-30T09:34:43.739Z,28.48
2023-04-30T09:37:11.577Z,28.69
2023-04-30T09:39:49.732Z,28.84
2023-04-30T09:42:19.661Z,28.86
2023-04-30T09:44:47.619Z,28.84
2023-04-30T09:47:16.833Z,28.69
2023-04-30T09:49:45.025Z,28.61
2023-04-30T09:52:12.723Z,28.84
2023-04-30T09:54:41.190Z,29.12
2023-04-30T09:57:11.399Z,29.22
2023-04-30T09:59:44.160Z,29.32
2023-04-30T10:02:15.260Z,29.41
2023-04-30T10:04:44.807Z,29.34
2023-04-30T10:07:16.281Z,29.33
2023-04-30T10:09:50.323Z,29.50
2023-04-30T10:12:22.624Z,29.75
2023-04-30T10:14:56.145Z,29.82
2023-04-30T10:17:28.585Z,29.48
2023-04-30T10:19:58.935Z,29.37
2023-04-30T10:22:26.382Z,29.16
2023-04-30T10:24:54.341Z,28.79
2023-04-30T10:27:21.517Z,28.36
2023-04-30T10:29:50.085Z,28.02
2023-04-30T10:32:19.783Z,27.58
2023-04-30T10:34:54.822Z,27.56
2023-04-30T10:37:30.271Z,27.85
2023-04-30T10:39:57.584Z,27.91
2023-04-30T10:42:24.572Z,27.99
2023-04-30T10:44:52.090Z,28.27
2023-04-30T10:47:21.284Z,28.51
2023-04-30T10:49:49.635Z,28.37
2023-04-30T10:52:27.651Z,27.91
2023-04-30T10:54:54.691Z,27.55
2023-04-30T10:57:22.701Z,27.33
2023-04-30T10:59:53.563Z,26.86
2023-04-30T11:02:22.126Z,26.39
2023-04-30T11:05:12.248Z,26.16
2023-04-30T11:07:49.210Z,26.36
2023-04-30T11:10:17.492Z,26.59
2023-04-30T11:12:48.662Z,26.84
2023-04-30T11:15:17.983Z,27.09
2023-04-30T11:17:50.451Z,27.50
2023-04-30T11:20:23.438Z,27.66
2023-04-30T11:23:08.678Z,27.86
2023-04-30T11:25:41.105Z,28.02
2023-04-30T11:28:08.979Z,28.25
2023-04-30T11:30:36.812Z,28.33
2023-04-30T11:33:05.345Z,28.34
2023-04-30T11:35:32.564Z,28.48
2023-04-30T11:38:00.365Z,27.76
2023-04-30T11:40:27.869Z,27.38
2023-04-30T11:42:55.903Z,27.63
2023-04-30T11:45:23.794Z,27.45
2023-04-30T11:47:52.594Z,27.59
2023-04-30T11:50:29.748Z,27.75
2023-04-30T11:52:58.172Z,27.91
2023-04-30T11:55:26.346Z,28.09
2023-04-30T11:57:55.935Z,28.05
2023-04-30T12:00:27.550Z,28.02
2023-04-30T12:03:00.159Z,28.03
2023-04-30T12:05:28.779Z,27.81
2023-04-30T12:07:57.563Z,27.64
2023-04-30T12:10:25.944Z,27.78
2023-04-30T12:12:54.651Z,27.82
2023-04-30T12:15:26.684Z,27.92
2023-04-30T12:17:55.985Z,27.65
2023-04-30T12:20:25.119Z,27.31
2023-04-30T12:22:53.857Z,27.11
2023-04-30T12:25:22.780Z,27.08
2023-04-30T12:27:51.954Z,26.96
2023-04-30T12:30:21.361Z,27.01
2023-04-30T12:32:50.710Z,27.02
2023-04-30T12:35:19.795Z,27.10
2023-04-30T12:37:48.343Z,27.31
2023-04-30T12:40:18.772Z,27.50
2023-04-30T12:42:49.354Z,27.69
2023-04-30T12:45:44.129Z,27.90
2023-04-30T12:48:11.553Z,27.65
2023-04-30T12:50:39.373Z,27.38
2023-04-30T12:53:07.731Z,27.11
2023-04-30T12:55:37.512Z,27.15
2023-04-30T12:58:08.760Z,27.18
2023-04-30T13:00:46.405Z,26.92
2023-04-30T13:03:13.501Z,27.09
2023-04-30T13:05:41.823Z,27.31
2023-04-30T13:08:09.660Z,27.57
2023-04-30T13:10:38.188Z,27.44
2023-04-30T13:13:05.132Z,27.48
2023-04-30T13:15:32.708Z,27.52
2023-04-30T13:17:59.747Z,27.40
2023-04-30T13:20:27.504Z,27.29
2023-04-30T13:22:54.432Z,27.05
2023-04-30T13:25:22.388Z,26.83
2023-04-30T13:27:50.732Z,26.59
2023-04-30T13:30:17.903Z,26.35
2023-04-30T13:32:46.066Z,26.14
2023-04-30T13:35:13.019Z,25.97
2023-04-30T13:37:40.008Z,25.83
2023-04-30T13:40:08.499Z,25.69
2023-04-30T13:42:38.829Z,25.54
2023-04-30T13:45:09.005Z,25.41
2023-04-30T13:47:36.147Z,25.24
2023-04-30T13:50:03.265Z,25.14
2023-04-30T13:52:30.519Z,25.01
2023-04-30T13:54:57.535Z,24.89
2023-04-30T13:57:24.719Z,24.73
2023-04-30T13:59:52.046Z,24.60
2023-04-30T14:02:20.417Z,24.48
2023-04-30T14:05:02.056Z,24.37
2023-04-30T14:07:32.421Z,24.27
2023-04-30T14:09:59.344Z,24.14
2023-04-30T14:12:26.312Z,24.07
2023-04-30T14:14:53.452Z,24.03
2023-04-30T14:17:21.942Z,24.00
2023-04-30T14:19:48.951Z,23.99
2023-04-30T14:22:17.048Z,23.95
2023-04-30T14:24:44.149Z,23.93
2023-04-30T14:27:11.139Z,23.80
2023-04-30T14:29:38.045Z,23.67
2023-04-30T14:32:06.852Z,23.81
2023-04-30T14:34:35.213Z,23.95
2023-04-30T14:37:02.790Z,23.89
2023-04-30T14:39:29.695Z,24.08
2023-04-30T14:41:57.027Z,24.16
2023-04-30T14:44:25.570Z,24.04
2023-04-30T14:46:52.651Z,24.23
2023-04-30T14:49:19.548Z,24.27
2023-04-30T14:51:48.367Z,24.28
2023-04-30T14:54:15.425Z,24.23
2023-04-30T14:56:42.421Z,24.26
2023-04-30T14:59:09.681Z,24.28
2023-04-30T15:01:36.753Z,24.18
2023-04-30T15:04:03.751Z,24.00
2023-04-30T15:06:31.078Z,24.00
2023-04-30T15:09:01.192Z,24.18
2023-04-30T15:11:28.348Z,24.39
2023-04-30T15:13:55.534Z,24.50
2023-04-30T15:16:22.777Z,24.56
2023-04-30T15:18:50.073Z,24.44
2023-04-30T15:21:17.005Z,24.28
2023-04-30T15:23:44.320Z,24.09
2023-04-30T15:26:12.858Z,23.93
2023-04-30T15:28:39.885Z,23.77
2023-04-30T15:31:06.880Z,23.65
2023-04-30T15:33:39.568Z,23.52
2023-04-30T15:36:06.826Z,23.40
2023-04-30T15:38:33.946Z,23.29
2023-04-30T15:41:00.969Z,23.17
2023-04-30T15:43:30.067Z,23.10
2023-04-30T15:45:57.205Z,23.04
2023-04-30T15:48:24.169Z,22.97
2023-04-30T15:50:51.213Z,22.89
2023-04-30T15:53:18.208Z,22.90
2023-04-30T15:55:46.628Z,22.87
2023-04-30T15:58:16.800Z,22.87
2023-04-30T16:00:45.204Z,22.91
2023-04-30T16:03:12.436Z,22.94
2023-04-30T16:05:40.550Z,22.93
2023-04-30T16:08:09.604Z,22.94
2023-04-30T16:10:37.015Z,22.92
2023-04-30T16:13:04.181Z,22.87
2023-04-30T16:15:31.191Z,22.81
2023-04-30T16:17:59.830Z,22.73
2023-04-30T16:20:27.795Z,22.67
2023-04-30T16:22:55.216Z,22.58
2023-04-30T16:25:22.786Z,22.49
2023-04-30T16:27:50.399Z,22.40
2023-04-30T16:30:17.569Z,22.28
2023-04-30T16:32:44.715Z,22.14
2023-04-30T16:35:13.146Z,21.98
2023-04-30T16:37:40.137Z,21.84
2023-04-30T16:40:08.327Z,21.72
2023-04-30T16:42:36.886Z,21.61
2023-04-30T16:45:04.462Z,21.49
2023-04-30T16:47:31.516Z,21.37
2023-04-30T16:49:58.613Z,21.21
2023-04-30T16:52:27.838Z,21.05
2023-04-30T16:54:54.781Z,20.89
2023-04-30T16:57:23.730Z,20.74
2023-04-30T16:59:51.012Z,20.56
2023-04-30T17:02:18.079Z,20.40
2023-04-30T17:04:45.072Z,20.27
2023-04-30T17:07:14.567Z,20.13
2023-04-30T17:09:43.096Z,20.02
2023-04-30T17:12:10.135Z,19.87
2023-04-30T17:14:37.702Z,19.75
2023-04-30T17:17:07.809Z,19.64
2023-04-30T17:19:37.800Z,19.53
2023-04-30T17:22:05.184Z,19.38
2023-04-30T17:24:32.191Z,19.24
2023-04-30T17:27:01.133Z,19.11
2023-04-30T17:29:28.507Z,18.99
2023-04-30T17:31:55.968Z,18.89
2023-04-30T17:34:23.083Z,18.76
2023-04-30T17:36:50.365Z,18.63
2023-04-30T17:39:18.871Z,18.53
2023-04-30T17:41:46.259Z,18.41
2023-04-30T17:44:15.314Z,18.29
2023-04-30T17:46:42.409Z,18.17
2023-04-30T17:49:10.137Z,18.09
2023-04-30T17:51:37.223Z,17.99
2023-04-30T17:54:05.469Z,17.85
2023-04-30T17:56:33.212Z,17.74
2023-04-30T17:59:00.828Z,17.63
2023-04-30T18:01:29.249Z,17.54
2023-04-30T18:03:56.288Z,17.49
2023-04-30T18:06:23.384Z,17.43
2023-04-30T18:08:50.867Z,17.36
2023-04-30T18:11:17.787Z,17.30
2023-04-30T18:13:45.052Z,17.24
2023-04-30T18:16:13.391Z,17.17
2023-04-30T18:18:44.616Z,17.13
2023-04-30T18:21:14.409Z,17.10
2023-04-30T18:23:41.439Z,17.04
2023-04-30T18:26:08.432Z,16.96
2023-04-30T18:28:36.078Z,16.89
2023-04-30T18:31:03.528Z,16.80
2023-04-30T18:33:30.471Z,16.74
2023-04-30T18:36:02.426Z,16.67
2023-04-30T18:38:30.844Z,16.63
2023-04-30T18:40:57.943Z,16.59
2023-04-30T18:43:25.094Z,16.57
2023-04-30T18:45:52.586Z,16.49
2023-04-30T18:48:19.849Z,16.43
2023-04-30T18:50:46.840Z,16.36
2023-04-30T18:53:15.784Z,16.32
2023-04-30T18:55:44.738Z,16.29
2023-04-30T18:58:11.946Z,16.25
2023-04-30T19:00:41.029Z,16.22
2023-04-30T19:03:08.194Z,16.19
2023-04-30T19:05:35.954Z,16.15
2023-04-30T19:08:03.142Z,16.09
2023-04-30T19:10:31.483Z,16.04
2023-04-30T19:12:58.387Z,15.97
2023-04-30T19:15:25.692Z,15.94
2023-04-30T19:17:52.763Z,15.89
2023-04-30T19:20:19.725Z,15.84
2023-04-30T19:22:50.201Z,15.78
2023-04-30T19:25:17.975Z,15.72
2023-04-30T19:27:46.900Z,15.69
2023-04-30T19:30:14.510Z,15.64
2023-04-30T19:32:41.586Z,15.58
2023-04-30T19:35:09.182Z,15.51
2023-04-30T19:37:36.751Z,15.46
2023-04-30T19:40:07.597Z,15.41
2023-04-30T19:42:34.558Z,15.34
2023-04-30T19:45:03.020Z,15.30
2023-04-30T19:47:30.028Z,15.23
2023-04-30T19:49:57.337Z,15.16
2023-04-30T19:52:24.570Z,15.09
2023-04-30T19:54:51.699Z,15.07
2023-04-30T19:57:18.813Z,15.03
2023-04-30T19:59:47.303Z,14.92
2023-04-30T20:02:15.852Z,14.86
2023-04-30T20:04:43.200Z,14.79
2023-04-30T20:07:10.310Z,14.72
2023-04-30T20:09:37.606Z,14.67
2023-04-30T20:12:05.455Z,14.63
2023-04-30T20:14:32.662Z,14.58
2023-04-30T20:16:59.707Z,14.52
2023-04-30T20:19:28.448Z,14.46
2023-04-30T20:21:55.442Z,14.39
2023-04-30T20:24:22.730Z,14.35
2023-04-30T20:26:49.889Z,14.32
2023-04-30T20:29:18.573Z,14.24
2023-04-30T20:31:45.681Z,14.16
2023-04-30T20:34:13.520Z,14.14
2023-04-30T20:36:41.876Z,14.11
2023-04-30T20:39:08.816Z,14.03
2023-04-30T20:41:36.200Z,13.88
2023-04-30T20:44:03.163Z,13.83
2023-04-30T20:46:32.149Z,13.82
2023-04-30T20:49:04.291Z,13.83
2023-04-30T20:51:31.452Z,13.82
2023-04-30T20:54:01.801Z,13.79
2023-04-30T20:56:30.458Z,13.76
2023-04-30T20:58:57.420Z,13.72
2023-04-30T21:01:24.372Z,13.64
2023-04-30T21:03:51.710Z,13.59
2023-04-30T21:06:19.031Z,13.52
2023-04-30T21:08:46.450Z,13.46
2023-04-30T21:11:14.738Z,13.38
2023-04-30T21:13:41.917Z,13.38
2023-04-30T21:16:09.011Z,13.32
2023-04-30T21:18:36.110Z,13.13
2023-04-30T21:21:04.090Z,12.88
2023-04-30T21:23:31.586Z,12.57
2023-04-30T21:25:58.713Z,12.44
2023-04-30T21:28:27.165Z,12.21
2023-04-30T21:30:57.191Z,12.23
2023-04-30T21:33:24.406Z,12.31
2023-04-30T21:35:51.416Z,12.35
2023-04-30T21:38:18.345Z,12.41
2023-04-30T21:40:45.733Z,12.45
2023-04-30T21:43:12.682Z,12.49
2023-04-30T21:45:43.188Z,12.51
2023-04-30T21:48:10.465Z,12.53
2023-04-30T21:50:38.695Z,12.50
2023-04-30T21:53:05.960Z,12.40
2023-04-30T21:55:32.911Z,12.32
2023-04-30T21:57:59.899Z,12.33
2023-04-30T22:00:28.091Z,12.37
2023-04-30T22:02:58.731Z,12.38
2023-04-30T22:05:26.042Z,12.40
2023-04-30T22:07:53.092Z,12.39
2023-04-30T22:10:19.972Z,12.37
2023-04-30T22:12:47.958Z,12.35
2023-04-30T22:15:15.467Z,12.34
2023-04-30T22:17:42.584Z,12.33
2023-04-30T22:20:12.245Z,12.33
2023-04-30T22:22:39.773Z,12.32
2023-04-30T22:25:09.347Z,12.32
2023-04-30T22:27:36.345Z,12.28
2023-04-30T22:30:03.986Z,12.29
2023-04-30T22:32:34.339Z,12.33
2023-04-30T22:35:04.604Z,12.35
2023-04-30T22:37:33.423Z,12.37
2023-04-30T22:40:00.664Z,12.34
2023-04-30T22:42:28.645Z,12.34
2023-04-30T22:44:55.698Z,12.33
2023-04-30T22:47:23.136Z,12.25
2023-04-30T22:49:50.359Z,12.20
2023-04-30T22:52:17.287Z,12.20
2023-04-30T22:54:45.616Z,12.25
2023-04-30T22:57:12.568Z,12.32
2023-04-30T22:59:39.483Z,12.38
2023-04-30T23:02:06.450Z,12.41
2023-04-30T23:04:34.171Z,12.39
2023-04-30T23:07:01.166Z,12.34
2023-04-30T23:09:28.696Z,12.27
2023-04-30T23:11:57.211Z,12.26
2023-04-30T23:14:24.148Z,12.26
2023-04-30T23:16:51.076Z,12.26
2023-04-30T23:19:18.012Z,12.22
2023-04-30T23:21:44.945Z,12.18
2023-04-30T23:24:11.878Z,12.12
2023-04-30T23:26:39.095Z,12.03
2023-04-30T23:29:07.392Z,11.89
2023-04-30T23:31:34.408Z,11.90
2023-04-30T23:34:01.404Z,11.96
2023-04-30T23:36:28.336Z,11.96
2023-04-30T23:38:55.289Z,11.95
2023-04-30T23:41:22.223Z,11.94
2023-04-30T23:43:49.144Z,11.87
2023-04-30T23:46:17.836Z,11.81
2023-04-30T23:48:44.862Z,11.80
2023-04-30T23:51:11.860Z,11.73
2023-04-30T23:53:39.650Z,11.66
2023-04-30T23:56:08.558Z,11.62
2023-04-30T23:58:35.621Z,11.72
